Decoded Metar for LFKC (CALVI in CORSE ISL.) (IATA:CLY) | Meteo·Mobile Aviation Weather
aviador You're here:

LFKC Decoded Metar

CALVI in CORSE ISL.
Report Time2020-02-23 11:30:00
UTC Time2020-02-23 12:05:39
Flight Rules vfr VFR
Wind010° at 04 kt
W.Decomp.*RWY 36: 4.0 kt HW 0.6 kt RCW
Visibility9999 m
Phenomena:N/A
Clouds:N/A
Expected CloudBase > 2,400 ft AGL from Temp-Dew spread
CeilingNone
Temp16°C (ISA +1)
Dew Point10°C (68% RH)
AAT14.6°C
QNH1030 hPa
Density Alt-52 ft
Elevation190 ft
Report Wrong Elevation
Raw Report
LFKC 231130Z AUTO 01004KT 340V050 CAVOK 16/10 Q1030 TEMPO
21015G25KT=

Extra information for LFKC:More info

Metar Taf Metar & Taf Last 4 Metars F.Rules Stats Wind Profile Meteogram Temp Stats Airport Information Weather charts Add Link Nearby VenuesMetar ALERT Operation Metar Decoded Social comments